CheckWX is a tool to help pilots better visualize weather data.  It is not intended as a substitute for an official pre-flight weather briefing.

02:54:12 UTC

EBAW TAF
Antwerp International (Deurne) Airport
Antwerp, Belgium
TAF EBAW 222300Z 2300/2309 10004KT 3500 BR NSC PROB30 TEMPO 2300/2306 2000 MIFG BECMG 2307/2309 8000 NSW

Feb-23@
00:00 UTC

Feb-23 @ 00:00 UTC

Feb-23@
07:00 UTC

Feb-23 @ 07:00 UTC

TAF EBAW 222300Z 2300/2309 10004KT 3500 BR NSC
Wind
  • 100° at 4 KTS
Conditions
Mist
Cloud Levels
  • No significant clouds

Feb-23@
00:00 UTC

Feb-23 @ 00:00 UTC

Feb-23@
06:00 UTC

Feb-23 @ 06:00 UTC

PROB30 TEMPO 2300/2306 2000 MIFG

Temporary - 30% Likelihood

Temporary - 30% Likelihood during this time.

Conditions
Shallow Fog

Feb-23@
07:00 UTC

Feb-23 @ 07:00 UTC

Feb-23@
09:00 UTC

Feb-23 @ 09:00 UTC

BECMG 2307/2309 8000 NSW

Becoming

Becoming Conditions expected by Sat, Feb 23, 2019 @ 09:00 UTC

Wind
  • 100° at 4 KTS
Conditions
No significant weather
Cloud Levels
  • No significant clouds